Terminal Aerodrome Forecast
Issued by NWS

Home | Current Version | Previous Version | Text Only | Print | Product List | Glossary On
Versions: 1 2 3 4 5 6 7 8 9 10 11 12 13 14 15 16
018
FTUS45 KTFX 142347
TAFHLN
TAF
KHLN 142347Z 1500/1524 29014G22KT P6SM SCT060 BKN150
     FM150200 28011KT P6SM SCT040 BKN070
     FM150600 26011KT P6SM VCSH SCT025 OVC040
      TEMPO 1510/1514 -SHRA BKN025
     FM151400 27014G22KT P6SM VCSH SCT025 OVC040
      TEMPO 1514/1518 -SHRA BKN025
     FM151800 29020G32KT P6SM VCSH SCT030 OVC050=

USA.gov is the U.S. government's official web portal to all federal, state and local government web resources and services.